Time;durP1;ratioP1;P1;durP2;ratioP2;P2;SDS_P1;SDS_P2;PMS_P1;PMS_P2;Temp;Humidity;BMP_temperature;BMP_pressure;BME280_temperature;BME280_humidity;BME280_pressure;Samples;Min_cycle;Max_cycle;Signal;HPM_P1;HPM_P2
2022/10/04 00:02:22;;;;;;;20.50;12.00;;;9.50;99.90;;;;;;5061745;28;20277;-62
2022/10/04 00:05:02;;;;;;;21.10;11.90;;;9.50;99.90;;;;;;5069689;28;20204;-62
2022/10/04 00:07:34;;;;;;;22.17;12.37;;;9.40;99.90;;;;;;5068783;28;20228;-62
2022/10/04 00:10:07;;;;;;;21.27;12.70;;;9.40;99.90;;;;;;5064783;28;20206;-62
2022/10/04 00:12:39;;;;;;;22.03;11.97;;;9.30;99.90;;;;;;5064997;28;20192;-62
2022/10/04 00:15:25;;;;;;;22.47;13.00;;;9.30;99.90;;;;;;5056430;28;20230;-62
2022/10/04 00:18:02;;;;;;;25.00;13.60;;;9.30;99.90;;;;;;5062744;28;20196;-62
2022/10/04 00:21:00;;;;;;;18.27;13.77;;;9.30;99.90;;;;;;5058147;28;20188;-62
2022/10/04 00:23:45;;;;;;;30.97;15.13;;;9.40;99.90;;;;;;5050591;28;20220;-62
2022/10/04 00:26:31;;;;;;;30.10;16.17;;;9.40;99.90;;;;;;5093142;28;20196;-62
2022/10/04 00:29:19;;;;;;;22.33;13.60;;;9.40;99.90;;;;;;5048785;28;20211;-62
2022/10/04 00:32:21;;;;;;;27.07;14.23;;;9.40;99.90;;;;;;5063667;28;20196;-62
2022/10/04 00:34:51;;;;;;;21.63;13.73;;;9.30;99.90;;;;;;5062872;28;20825;-62
2022/10/04 00:37:21;;;;;;;26.27;15.13;;;9.30;99.90;;;;;;5067286;28;20279;-62
2022/10/04 00:40:04;;;;;;;24.97;15.33;;;9.30;99.90;;;;;;5061659;28;20200;-62
2022/10/04 00:43:02;;;;;;;30.43;16.27;;;9.30;99.90;;;;;;5058086;28;20211;-62
2022/10/04 00:45:36;;;;;;;30.27;15.43;;;9.30;99.90;;;;;;5065084;28;20916;-62
2022/10/04 00:48:31;;;;;;;29.93;17.07;;;9.40;99.90;;;;;;5061833;28;20196;-62
2022/10/04 00:51:07;;;;;;;32.53;17.90;;;9.50;99.90;;;;;;5063681;28;20184;-62
2022/10/04 00:53:59;;;;;;;30.20;17.30;;;9.50;99.90;;;;;;5063218;28;20199;-62
2022/10/04 00:56:36;;;;;;;26.37;16.60;;;9.50;99.90;;;;;;5062476;28;21207;-62
2022/10/04 00:59:26;;;;;;;31.70;16.70;;;9.50;99.90;;;;;;5045356;28;20192;-62
2022/10/04 01:01:58;;;;;;;28.43;16.17;;;9.40;99.90;;;;;;5061122;28;20180;-62
2022/10/04 01:04:33;;;;;;;26.13;16.17;;;9.40;99.90;;;;;;5064496;28;20261;-62
2022/10/04 01:07:03;;;;;;;25.93;16.03;;;9.30;99.90;;;;;;5066003;28;20227;-62
2022/10/04 01:09:36;;;;;;;25.73;16.30;;;9.30;99.90;;;;;;5068629;28;20265;-62
2022/10/04 01:12:13;;;;;;;34.23;16.07;;;9.30;99.90;;;;;;5054830;28;20536;-62
2022/10/04 01:14:52;;;;;;;33.43;16.27;;;9.30;99.90;;;;;;5063339;28;20211;-62
2022/10/04 01:17:20;;;;;;;27.23;15.70;;;9.20;99.90;;;;;;5091133;27;20912;-62
2022/10/04 01:19:54;;;;;;;24.67;14.63;;;9.10;99.90;;;;;;5062142;28;20299;-62
2022/10/04 01:22:36;;;;;;;20.07;13.87;;;9.00;99.90;;;;;;5069498;28;20199;-62
2022/10/04 01:25:05;;;;;;;23.47;14.50;;;9.00;99.90;;;;;;5079575;28;20672;-62
2022/10/04 01:27:42;;;;;;;22.47;13.67;;;8.90;99.90;;;;;;5067297;28;20211;-61
2022/10/04 01:30:12;;;;;;;24.00;13.87;;;8.80;99.90;;;;;;5062641;28;20200;-62
2022/10/04 01:32:41;;;;;;;33.20;14.40;;;8.80;99.90;;;;;;5095358;27;20562;-62
2022/10/04 01:35:15;;;;;;;24.00;15.03;;;8.80;99.90;;;;;;5059495;28;20204;-62
2022/10/04 01:37:45;;;;;;;28.70;15.80;;;8.80;99.90;;;;;;5053335;28;20196;-62
2022/10/04 01:40:13;;;;;;;21.80;15.20;;;8.90;99.90;;;;;;5068947;28;20196;-62
2022/10/04 01:42:47;;;;;;;24.13;15.73;;;8.80;99.90;;;;;;5064167;28;20580;-61
2022/10/04 01:45:24;;;;;;;26.87;15.73;;;8.80;99.90;;;;;;5066079;28;20206;-61
2022/10/04 01:47:56;;;;;;;27.20;16.57;;;8.80;99.90;;;;;;5061817;28;20200;-62
2022/10/04 01:50:30;;;;;;;30.30;16.20;;;8.70;99.90;;;;;;5063928;28;20199;-61
2022/10/04 01:53:09;;;;;;;21.47;14.40;;;8.70;99.90;;;;;;5067149;28;20197;-62
2022/10/04 01:55:40;;;;;;;24.50;13.87;;;8.70;99.90;;;;;;5059454;28;20207;-62
2022/10/04 01:58:13;;;;;;;24.90;15.50;;;8.70;99.90;;;;;;5058736;28;20185;-62
2022/10/04 02:00:50;;;;;;;24.47;14.80;;;8.60;99.90;;;;;;5058941;28;20627;-62
2022/10/04 02:03:23;;;;;;;28.07;15.60;;;8.60;99.90;;;;;;5069157;28;20731;-62
2022/10/04 02:05:57;;;;;;;26.30;15.77;;;8.60;99.90;;;;;;5068460;28;20645;-62
2022/10/04 02:08:30;;;;;;;26.47;15.63;;;8.60;99.90;;;;;;5068804;28;20200;-62
2022/10/04 02:11:04;;;;;;;22.00;14.97;;;8.60;99.90;;;;;;5062366;28;20819;-61
2022/10/04 02:13:35;;;;;;;22.83;14.33;;;8.50;99.90;;;;;;5069434;28;20665;-61
2022/10/04 02:16:08;;;;;;;25.67;14.73;;;8.50;99.90;;;;;;5065480;28;20241;-61
2022/10/04 02:18:39;;;;;;;24.67;15.20;;;8.40;99.90;;;;;;5059232;28;20870;-61
2022/10/04 02:21:08;;;;;;;26.20;14.53;;;8.40;99.90;;;;;;5063478;28;20297;-61
2022/10/04 02:23:39;;;;;;;20.20;14.57;;;8.40;99.90;;;;;;5064770;28;20204;-61
2022/10/04 02:26:08;;;;;;;27.20;14.83;;;8.30;99.90;;;;;;5067386;28;20199;-61
2022/10/04 02:28:37;;;;;;;25.53;15.00;;;8.30;99.90;;;;;;5067494;28;20818;-61
2022/10/04 02:34:00;;;;;;;27.33;16.97;;;8.30;99.90;;;;;;5070617;28;20219;-61
2022/10/04 02:36:29;;;;;;;26.17;16.90;;;8.40;99.90;;;;;;5065487;28;20207;-61
2022/10/04 02:39:04;;;;;;;32.20;17.73;;;8.50;99.90;;;;;;5075997;28;20192;-61
2022/10/04 02:41:37;;;;;;;27.70;17.30;;;8.50;99.90;;;;;;5063961;28;20203;-61
2022/10/04 02:44:14;;;;;;;27.13;16.90;;;8.50;99.90;;;;;;5058225;28;20231;-61
2022/10/04 02:46:49;;;;;;;29.70;18.77;;;8.60;99.90;;;;;;5057898;28;20196;-61
2022/10/04 02:49:27;;;;;;;32.87;18.67;;;8.60;99.90;;;;;;5057858;28;20215;-62
2022/10/04 02:52:03;;;;;;;28.37;17.97;;;8.70;99.90;;;;;;5064220;28;20192;-61
2022/10/04 02:54:40;;;;;;;32.83;17.83;;;8.80;99.90;;;;;;5073829;28;20191;-62
2022/10/04 02:57:15;;;;;;;30.63;18.83;;;8.80;99.90;;;;;;5056093;28;20203;-61
2022/10/04 02:59:44;;;;;;;30.73;18.53;;;8.80;99.90;;;;;;5062071;28;20196;-61
2022/10/04 03:02:23;;;;;;;35.77;19.77;;;8.80;99.90;;;;;;5067113;28;20551;-61
2022/10/04 03:05:01;;;;;;;31.33;18.63;;;8.80;99.90;;;;;;5068717;28;20197;-61
2022/10/04 03:07:31;;;;;;;33.37;19.10;;;8.80;99.90;;;;;;5068236;28;20971;-61
2022/10/04 03:10:03;;;;;;;31.57;19.33;;;8.80;99.90;;;;;;5053785;28;20196;-61
2022/10/04 03:12:32;;;;;;;35.10;18.90;;;8.80;99.90;;;;;;5059384;28;20208;-61
2022/10/04 03:15:00;;;;;;;34.37;18.67;;;8.80;99.90;;;;;;5070310;28;20187;-61
2022/10/04 03:17:29;;;;;;;36.93;20.27;;;8.80;99.90;;;;;;5064054;28;20217;-61
2022/10/04 03:20:01;;;;;;;38.27;20.23;;;8.80;99.90;;;;;;5060236;28;20301;-61
2022/10/04 03:22:29;;;;;;;35.47;20.00;;;8.80;99.90;;;;;;5061460;28;21417;-61
2022/10/04 03:24:58;;;;;;;38.43;20.37;;;8.70;99.90;;;;;;5062200;28;20192;-61
2022/10/04 03:27:32;;;;;;;40.83;20.57;;;8.70;99.90;;;;;;5064157;28;20196;-61
2022/10/04 03:30:01;;;;;;;41.93;22.10;;;8.70;99.90;;;;;;5060066;28;20202;-61
2022/10/04 03:32:31;;;;;;;43.63;21.70;;;8.70;99.90;;;;;;5064606;28;20206;-61
2022/10/04 03:35:02;;;;;;;45.10;21.30;;;8.60;99.90;;;;;;5065863;28;20832;-61
2022/10/04 03:37:35;;;;;;;41.90;21.37;;;8.60;99.90;;;;;;5059768;28;20597;-61
2022/10/04 03:40:09;;;;;;;40.70;21.30;;;8.60;99.90;;;;;;5067673;28;20188;-61
2022/10/04 03:42:40;;;;;;;40.77;20.67;;;8.60;99.90;;;;;;5065252;28;20183;-61
2022/10/04 03:45:15;;;;;;;38.30;21.13;;;8.60;99.90;;;;;;5065377;28;20191;-61
2022/10/04 03:47:47;;;;;;;38.93;20.03;;;8.60;99.90;;;;;;5093875;28;20184;-61
2022/10/04 03:50:19;;;;;;;42.00;20.87;;;8.60;99.90;;;;;;5055122;28;20196;-61
2022/10/04 03:52:53;;;;;;;45.57;21.80;;;8.60;99.90;;;;;;5062336;28;20196;-61
2022/10/04 03:55:25;;;;;;;45.77;22.80;;;8.60;99.90;;;;;;5054949;28;20204;-61
2022/10/04 03:57:56;;;;;;;44.17;24.23;;;8.60;99.90;;;;;;5059845;28;20215;-61
2022/10/04 04:00:24;;;;;;;47.37;23.30;;;8.60;99.90;;;;;;5047530;28;20442;-61
2022/10/04 04:03:15;;;;;;;49.67;22.97;;;8.60;99.90;;;;;;5053813;28;20671;-61
2022/10/04 04:05:49;;;;;;;46.30;23.70;;;8.60;99.90;;;;;;5062670;28;20319;-61
2022/10/04 04:08:26;;;;;;;43.53;21.97;;;8.60;99.90;;;;;;5062494;28;20670;-61
2022/10/04 04:10:58;;;;;;;42.00;21.07;;;8.50;99.90;;;;;;5064763;28;20536;-61
2022/10/04 04:13:35;;;;;;;39.60;21.43;;;8.50;99.90;;;;;;5064469;28;20198;-61
2022/10/04 04:16:04;;;;;;;42.20;20.93;;;8.40;99.90;;;;;;5057570;28;20231;-61
2022/10/04 04:18:40;;;;;;;34.30;19.87;;;8.40;99.90;;;;;;5054415;28;20254;-61
2022/10/04 04:21:12;;;;;;;36.93;20.70;;;8.40;99.90;;;;;;5059893;28;20184;-61
2022/10/04 04:23:47;;;;;;;34.73;19.73;;;8.40;99.90;;;;;;5066359;28;20207;-61
2022/10/04 04:26:23;;;;;;;40.30;19.40;;;8.50;99.90;;;;;;5062814;28;20203;-61
2022/10/04 04:28:56;;;;;;;30.70;18.27;;;8.50;99.90;;;;;;5070339;28;20207;-61
2022/10/04 04:31:29;;;;;;;33.67;18.70;;;8.50;99.90;;;;;;5071032;28;20192;-61
2022/10/04 04:34:00;;;;;;;34.27;19.33;;;8.50;99.90;;;;;;5072075;28;20278;-61
2022/10/04 04:36:31;;;;;;;30.17;18.50;;;8.50;99.90;;;;;;5067585;28;20678;-61
2022/10/04 04:42:01;;;;;;;37.77;19.00;;;8.50;99.90;;;;;;5060076;28;21161;-62
2022/10/04 04:44:31;;;;;;;38.27;18.90;;;8.50;99.90;;;;;;5067791;28;20188;-61
2022/10/04 04:47:08;;;;;;;37.53;20.20;;;8.50;99.90;;;;;;5053332;28;20188;-61
2022/10/04 04:49:39;;;;;;;34.23;19.07;;;8.50;99.90;;;;;;5074220;28;20214;-61
2022/10/04 04:52:16;;;;;;;35.87;20.00;;;8.50;99.90;;;;;;5057899;28;20212;-61
2022/10/04 04:54:47;;;;;;;42.13;20.30;;;8.50;99.90;;;;;;5062946;28;20190;-61
2022/10/04 04:57:17;;;;;;;40.67;19.90;;;8.50;99.90;;;;;;5051678;28;20209;-61
2022/10/04 04:59:50;;;;;;;44.73;20.53;;;8.50;99.90;;;;;;5059271;28;20199;-61
2022/10/04 05:02:30;;;;;;;42.23;19.93;;;8.50;99.90;;;;;;5060728;28;20232;-61
2022/10/04 05:05:27;;;;;;;48.27;20.10;;;8.50;99.90;;;;;;5059610;28;20203;-61
2022/10/04 05:08:13;;;;;;;42.70;19.67;;;8.50;99.90;;;;;;5044511;28;20838;-61
2022/10/04 05:10:45;;;;;;;44.97;20.60;;;8.40;99.90;;;;;;5058512;28;20215;-61
2022/10/04 05:13:16;;;;;;;40.33;19.50;;;8.40;99.90;;;;;;5058943;28;20199;-61
2022/10/04 05:15:47;;;;;;;41.00;19.00;;;8.30;99.90;;;;;;5059831;28;20196;-61
2022/10/04 05:18:28;;;;;;;34.50;18.60;;;8.30;99.90;;;;;;5055552;28;20227;-61
2022/10/04 05:20:59;;;;;;;29.73;16.60;;;8.20;99.90;;;;;;5062904;28;20196;-61
2022/10/04 05:23:28;;;;;;;30.23;15.97;;;8.20;99.90;;;;;;5093251;28;20200;-61
2022/10/04 05:25:56;;;;;;;33.63;17.73;;;8.10;99.90;;;;;;5069581;28;20199;-61
2022/10/04 05:28:24;;;;;;;33.13;18.27;;;8.00;99.90;;;;;;5059437;28;20883;-61
2022/10/04 05:31:15;;;;;;;30.97;16.50;;;8.00;99.90;;;;;;5068995;28;20667;-61
2022/10/04 05:33:46;;;;;;;31.90;16.60;;;7.90;99.90;;;;;;5064122;28;20281;-61
2022/10/04 05:36:55;;;;;;;29.20;16.03;;;7.90;99.90;;;;;;5065617;28;20200;-61
2022/10/04 05:39:27;;;;;;;31.70;16.20;;;7.90;99.90;;;;;;5014140;28;20193;-61
2022/10/04 05:42:06;;;;;;;33.57;16.33;;;8.00;99.90;;;;;;5053206;28;21673;-61
2022/10/04 05:44:44;;;;;;;28.40;15.83;;;8.00;99.90;;;;;;5058146;28;20192;-61
2022/10/04 05:47:15;;;;;;;33.03;17.47;;;8.00;99.90;;;;;;5069534;28;20558;-61
2022/10/04 05:49:46;;;;;;;34.07;18.20;;;8.00;99.90;;;;;;5059531;28;20586;-61
2022/10/04 05:52:24;;;;;;;40.87;18.87;;;8.00;99.90;;;;;;5060253;28;20810;-61
2022/10/04 05:55:15;;;;;;;40.37;18.37;;;8.00;99.90;;;;;;5059268;28;20208;-61
2022/10/04 05:57:57;;;;;;;31.50;16.63;;;8.00;99.90;;;;;;5077528;28;20862;-61
2022/10/04 06:00:35;;;;;;;28.20;16.33;;;8.00;99.90;;;;;;5056286;28;20188;-61
2022/10/04 06:03:24;;;;;;;29.83;16.30;;;8.10;99.90;;;;;;5062555;28;20195;-61
2022/10/04 06:05:56;;;;;;;31.60;15.60;;;8.00;99.90;;;;;;5061603;28;20232;-61
2022/10/04 06:08:39;;;;;;;25.07;14.30;;;8.00;99.90;;;;;;5061734;28;20199;-61
2022/10/04 06:11:33;;;;;;;27.53;15.10;;;8.00;99.90;;;;;;5059523;28;20219;-61
2022/10/04 06:14:40;;;;;;;28.23;15.87;;;8.00;99.90;;;;;;5061193;28;20188;-61
2022/10/04 06:17:41;;;;;;;26.90;15.27;;;7.90;99.90;;;;;;5054629;28;20231;-61
2022/10/04 06:20:47;;;;;;;32.20;16.23;;;8.00;99.90;;;;;;5043916;28;20215;-61
2022/10/04 06:23:17;;;;;;;27.30;14.93;;;8.10;99.90;;;;;;5091640;27;20200;-61
2022/10/04 06:25:49;;;;;;;25.90;15.33;;;8.20;99.90;;;;;;5065931;28;20203;-61
2022/10/04 06:28:23;;;;;;;27.47;14.77;;;8.20;99.90;;;;;;5053661;28;20771;-61
2022/10/04 06:31:25;;;;;;;23.23;15.03;;;8.20;99.90;;;;;;5059523;28;20866;-61
2022/10/04 06:34:11;;;;;;;33.43;15.60;;;8.30;99.90;;;;;;5063936;28;20620;-61
2022/10/04 06:36:59;;;;;;;33.37;16.57;;;8.30;99.90;;;;;;5059475;28;20535;-61
2022/10/04 06:39:53;;;;;;;25.20;14.53;;;8.40;99.90;;;;;;5060849;28;20203;-61
2022/10/04 06:42:38;;;;;;;27.70;16.20;;;8.40;99.90;;;;;;5069110;28;20199;-61
2022/10/04 06:45:26;;;;;;;29.80;15.80;;;8.50;99.90;;;;;;5069519;28;20228;-61
2022/10/04 06:48:16;;;;;;;28.10;16.20;;;8.50;99.90;;;;;;5073921;28;20192;-61
2022/10/04 06:50:50;;;;;;;27.23;16.20;;;8.50;99.90;;;;;;5064450;28;20203;-61
2022/10/04 06:53:32;;;;;;;28.83;17.40;;;8.60;99.90;;;;;;5055822;28;20211;-61
2022/10/04 06:56:17;;;;;;;30.60;16.47;;;8.60;99.90;;;;;;5066294;28;20761;-61
2022/10/04 06:59:07;;;;;;;32.27;17.10;;;8.70;99.90;;;;;;5093882;28;20974;-61
2022/10/04 07:01:38;;;;;;;29.60;16.27;;;8.80;99.90;;;;;;5064009;28;20200;-61
2022/10/04 07:04:20;;;;;;;28.23;17.23;;;8.90;99.90;;;;;;5093560;28;20281;-61
2022/10/04 07:07:22;;;;;;;33.90;17.00;;;9.00;99.90;;;;;;5057012;28;20278;-61
2022/10/04 07:09:47;;;;;;;31.40;16.93;;;9.10;99.90;;;;;;5064824;28;20207;-61
2022/10/04 07:12:17;;;;;;;23.93;16.20;;;9.40;99.90;;;;;;5065264;28;20231;-61
2022/10/04 07:14:49;;;;;;;28.60;17.10;;;9.60;99.90;;;;;;5061649;28;20195;-61
2022/10/04 07:17:22;;;;;;;28.67;16.47;;;9.80;99.90;;;;;;5063671;28;20207;-61
2022/10/04 07:19:53;;;;;;;28.03;16.20;;;10.00;99.90;;;;;;5057545;28;20188;-61
2022/10/04 07:22:28;;;;;;;28.70;16.57;;;10.20;99.90;;;;;;5065721;28;20191;-61
2022/10/04 07:25:05;;;;;;;21.47;14.93;;;10.40;99.90;;;;;;5062021;28;20211;-62
2022/10/04 07:27:42;;;;;;;33.27;14.90;;;10.60;99.90;;;;;;5050117;28;20187;-61
2022/10/04 07:30:14;;;;;;;28.67;15.63;;;10.60;99.90;;;;;;5064597;28;20183;-62
2022/10/04 07:32:46;;;;;;;27.27;14.03;;;10.80;99.90;;;;;;5064782;28;20201;-62
2022/10/04 07:35:24;;;;;;;25.97;12.73;;;11.00;99.90;;;;;;5058293;28;20212;-62
2022/10/04 07:37:58;;;;;;;22.63;11.93;;;11.20;99.90;;;;;;5055237;28;20205;-62
2022/10/04 07:40:32;;;;;;;24.37;12.10;;;11.20;99.90;;;;;;5056038;28;20192;-62
2022/10/04 07:43:07;;;;;;;18.27;11.57;;;11.20;99.90;;;;;;5050829;28;20282;-60
2022/10/04 07:45:39;;;;;;;24.97;11.63;;;11.30;99.90;;;;;;5058240;28;20195;-60
2022/10/04 07:48:14;;;;;;;21.30;11.30;;;11.40;99.90;;;;;;5058135;28;20184;-60
2022/10/04 07:50:50;;;;;;;18.27;11.17;;;11.40;99.90;;;;;;5063343;28;20192;-60
2022/10/04 07:53:26;;;;;;;16.10;10.57;;;11.50;99.90;;;;;;5061813;28;20197;-60
2022/10/04 07:56:01;;;;;;;15.93;10.17;;;11.70;99.90;;;;;;5066463;28;20196;-61
2022/10/04 07:58:40;;;;;;;21.97;10.57;;;11.70;99.90;;;;;;5059809;28;20199;-60
2022/10/04 08:01:25;;;;;;;16.40;10.30;;;11.70;99.90;;;;;;5060881;28;20192;-61
2022/10/04 08:04:06;;;;;;;18.80;10.27;;;11.80;99.90;;;;;;5059699;28;20868;-60
2022/10/04 08:06:38;;;;;;;17.77;10.53;;;12.00;99.90;;;;;;5059818;28;20239;-61
2022/10/04 08:09:22;;;;;;;17.90;9.40;;;12.20;99.90;;;;;;5070405;28;20614;-61
2022/10/04 08:12:00;;;;;;;18.47;9.47;;;12.30;99.90;;;;;;5064241;28;20204;-61
2022/10/04 08:14:40;;;;;;;16.30;9.60;;;12.50;99.90;;;;;;5062320;28;20205;-61
2022/10/04 08:17:19;;;;;;;16.10;9.57;;;12.70;99.90;;;;;;5046676;28;20875;-61
2022/10/04 08:19:58;;;;;;;15.90;9.40;;;12.80;99.90;;;;;;5058883;28;20551;-61
2022/10/04 08:22:40;;;;;;;15.77;9.90;;;13.00;99.90;;;;;;5061844;28;20310;-61
2022/10/04 08:25:18;;;;;;;13.47;9.07;;;13.00;99.90;;;;;;5061650;28;20713;-61
2022/10/04 08:31:08;;;;;;;18.47;9.77;;;13.20;99.90;;;;;;5031699;28;20208;-61
2022/10/04 08:33:59;;;;;;;22.27;9.67;;;13.10;99.90;;;;;;5065471;28;20286;-61
2022/10/04 08:36:42;;;;;;;15.60;9.27;;;13.10;99.90;;;;;;5068344;28;20286;-61
2022/10/04 08:39:31;;;;;;;23.90;9.40;;;13.20;99.90;;;;;;5061745;28;20208;-61
2022/10/04 08:42:24;;;;;;;16.50;9.07;;;13.30;99.90;;;;;;5060001;28;20582;-61
2022/10/04 08:45:16;;;;;;;16.73;9.20;;;13.60;99.90;;;;;;5061932;28;20196;-61
2022/10/04 08:48:23;;;;;;;15.13;9.50;;;13.70;99.90;;;;;;5061773;28;21325;-61
2022/10/04 08:51:40;;;;;;;18.30;9.30;;;13.60;99.90;;;;;;5062944;28;20222;-61
2022/10/04 08:54:55;;;;;;;15.60;8.53;;;13.70;99.90;;;;;;5079284;28;20539;-61
2022/10/04 08:57:55;;;;;;;16.13;9.17;;;13.80;99.90;;;;;;5079727;28;20336;-61
2022/10/04 09:00:31;;;;;;;18.47;9.50;;;13.90;99.90;;;;;;5061730;28;20246;-61
2022/10/04 09:03:40;;;;;;;13.80;9.10;;;14.00;99.90;;;;;;5061742;28;20199;-61
2022/10/04 09:06:39;;;;;;;10.30;8.60;;;14.20;99.90;;;;;;5064535;28;20712;-61
2022/10/04 09:09:46;;;;;;;15.13;9.23;;;14.20;99.90;;;;;;5052213;28;20219;-61
2022/10/04 09:12:49;;;;;;;12.53;9.13;;;14.20;99.90;;;;;;5065559;28;20224;-61
2022/10/04 09:15:30;;;;;;;20.70;8.73;;;14.30;99.90;;;;;;5073743;28;20200;-61
2022/10/04 09:18:14;;;;;;;15.43;8.73;;;14.40;99.90;;;;;;5075155;28;20234;-61
2022/10/04 09:20:57;;;;;;;12.60;8.87;;;14.60;99.90;;;;;;5073098;28;20192;-61
2022/10/04 09:24:00;;;;;;;14.03;8.67;;;14.60;99.90;;;;;;5082536;28;20200;-61
2022/10/04 09:26:38;;;;;;;13.70;8.67;;;14.70;99.90;;;;;;5067285;28;20206;-61
2022/10/04 09:29:21;;;;;;;12.70;8.00;;;14.90;99.90;;;;;;5077240;28;20214;-62
2022/10/04 09:32:20;;;;;;;15.93;8.23;;;15.00;99.90;;;;;;5061882;28;20192;-61
2022/10/04 09:35:25;;;;;;;17.67;8.60;;;15.20;99.90;;;;;;5065911;28;20196;-61
2022/10/04 09:38:19;;;;;;;11.83;8.10;;;15.20;99.90;;;;;;5028344;28;20216;-61
2022/10/04 09:41:07;;;;;;;13.60;8.10;;;15.30;99.90;;;;;;5059482;28;20334;-61
2022/10/04 09:44:05;;;;;;;17.27;7.67;;;15.50;99.90;;;;;;5064074;28;20737;-61
2022/10/04 09:46:56;;;;;;;11.23;7.60;;;15.60;99.90;;;;;;5064472;28;20900;-62
2022/10/04 09:49:44;;;;;;;16.77;7.80;;;15.70;99.90;;;;;;5062251;28;20247;-61
2022/10/04 09:52:31;;;;;;;12.40;7.27;;;15.70;99.90;;;;;;5063889;28;20566;-61
2022/10/04 09:55:24;;;;;;;13.93;7.90;;;15.70;99.90;;;;;;5060063;28;20227;-61
2022/10/04 09:58:15;;;;;;;12.60;7.77;;;15.50;99.90;;;;;;5057935;28;20193;-61
2022/10/04 10:00:53;;;;;;;13.53;7.33;;;15.60;99.90;;;;;;5059545;28;20241;-61
2022/10/04 10:03:46;;;;;;;9.17;7.00;;;15.70;99.90;;;;;;5059531;28;20223;-61
2022/10/04 10:06:45;;;;;;;12.27;7.57;;;15.80;99.90;;;;;;5058133;28;20252;-61
2022/10/04 10:13:38;;;;;;;9.73;7.53;;;16.00;99.90;;;;;;5044273;28;20192;-61
2022/10/04 10:15:38;;;;;;;10.43;6.77;;;16.50;99.90;;;;;;5056692;28;20912;-61
2022/10/04 10:18:17;;;;;;;10.13;7.03;;;16.60;99.90;;;;;;5087212;28;20206;-61
2022/10/04 10:21:11;;;;;;;10.30;7.43;;;16.70;99.90;;;;;;5060483;28;20231;-61
2022/10/04 10:24:22;;;;;;;12.77;7.17;;;16.70;99.90;;;;;;5056947;28;20598;-61
2022/10/04 10:27:02;;;;;;;12.37;7.60;;;16.70;99.90;;;;;;5060789;28;20276;-61
2022/10/04 10:30:06;;;;;;;10.07;6.70;;;16.70;99.90;;;;;;5063457;28;20280;-61
2022/10/04 10:33:00;;;;;;;14.10;7.47;;;16.80;99.90;;;;;;5070240;28;20214;-61
2022/10/04 10:35:44;;;;;;;9.07;6.17;;;16.90;99.90;;;;;;5062237;28;20206;-62
2022/10/04 10:38:30;;;;;;;10.33;7.13;;;17.10;99.90;;;;;;5063624;28;20697;-61
2022/10/04 10:41:26;;;;;;;15.57;6.73;;;17.20;99.90;;;;;;5061488;28;20651;-61
2022/10/04 10:44:18;;;;;;;10.93;7.30;;;17.30;99.90;;;;;;5071599;28;20287;-61
2022/10/04 10:47:02;;;;;;;7.77;6.27;;;17.50;99.90;;;;;;5055717;28;20193;-62
2022/10/04 10:49:47;;;;;;;8.90;6.20;;;17.70;99.90;;;;;;5052511;28;20223;-62
2022/10/04 10:52:59;;;;;;;16.03;6.27;;;18.00;99.90;;;;;;5059854;28;20199;-61
2022/10/04 10:55:41;;;;;;;10.33;6.67;;;17.90;99.90;;;;;;5066780;28;20201;-62
2022/10/04 10:59:00;;;;;;;12.17;6.70;;;18.00;99.90;;;;;;5064107;28;20204;-62
2022/10/04 11:01:59;;;;;;;13.07;7.10;;;17.80;99.90;;;;;;5064173;28;20219;-61
2022/10/04 11:05:03;;;;;;;10.77;6.97;;;17.80;99.90;;;;;;5056964;28;20644;-62
2022/10/04 11:07:54;;;;;;;13.73;6.87;;;17.80;99.90;;;;;;5037211;28;20234;-61
2022/10/04 11:11:02;;;;;;;9.40;6.33;;;17.90;99.90;;;;;;5066208;28;20275;-62
2022/10/04 11:14:14;;;;;;;9.43;7.00;;;18.00;99.90;;;;;;5066976;28;20192;-61
2022/10/04 11:17:10;;;;;;;12.33;6.87;;;18.30;99.90;;;;;;5067410;28;20198;-61
2022/10/04 11:20:26;;;;;;;12.07;6.53;;;18.70;99.90;;;;;;5071842;28;20223;-61
2022/10/04 11:23:37;;;;;;;8.57;5.93;;;18.60;99.90;;;;;;5060354;28;20200;-61
2022/10/04 11:26:56;;;;;;;6.63;6.00;;;18.70;99.90;;;;;;5069741;28;20214;-62
2022/10/04 11:29:40;;;;;;;7.87;5.80;;;18.70;99.90;;;;;;5021669;28;20203;-62
2022/10/04 11:33:01;;;;;;;6.87;5.97;;;19.00;99.90;;;;;;5056409;28;20199;-62
2022/10/04 11:35:53;;;;;;;8.63;5.87;;;19.10;99.90;;;;;;5068586;28;20198;-62
2022/10/04 11:38:47;;;;;;;14.97;6.03;;;19.20;99.90;;;;;;5068189;28;20200;-61
2022/10/04 11:41:22;;;;;;;14.00;6.33;;;19.30;99.90;;;;;;5054937;28;20265;-62
2022/10/04 11:44:29;;;;;;;6.70;5.80;;;19.40;99.90;;;;;;5062042;28;20662;-62
2022/10/04 11:47:08;;;;;;;8.43;5.40;;;19.70;99.90;;;;;;5061873;28;20203;-62
2022/10/04 11:50:14;;;;;;;6.90;5.40;;;19.70;99.90;;;;;;5066434;28;20244;-62
2022/10/04 11:53:35;;;;;;;6.10;5.37;;;19.80;99.90;;;;;;5095165;28;20206;-62
2022/10/04 11:56:32;;;;;;;8.07;4.97;;;19.70;99.90;;;;;;5068402;28;20196;-62
2022/10/04 11:59:16;;;;;;;7.43;4.60;;;19.70;99.90;;;;;;5067374;28;20222;-62
2022/10/04 12:02:23;;;;;;;5.40;4.90;;;19.70;99.90;;;;;;5055943;28;20233;-62
2022/10/04 12:05:26;;;;;;;8.20;4.47;;;20.00;99.90;;;;;;5054073;28;20196;-62
2022/10/04 12:08:09;;;;;;;6.50;4.90;;;20.30;99.90;;;;;;5071768;28;20184;-62
2022/10/04 12:10:40;;;;;;;6.50;5.40;;;20.50;99.90;;;;;;5064329;28;20196;-62
2022/10/04 12:13:26;;;;;;;7.03;5.27;;;20.50;99.90;;;;;;5064702;28;20199;-62
2022/10/04 12:16:38;;;;;;;5.93;5.33;;;20.40;99.90;;;;;;5061414;28;20196;-62
2022/10/04 12:19:39;;;;;;;8.30;4.83;;;20.50;99.90;;;;;;5056284;28;20200;-61
2022/10/04 12:22:29;;;;;;;7.13;4.67;;;20.30;99.90;;;;;;5051423;28;20239;-62
2022/10/04 12:25:31;;;;;;;8.40;5.40;;;20.10;99.90;;;;;;5059313;28;20192;-61
2022/10/04 12:28:43;;;;;;;9.03;5.70;;;20.10;99.90;;;;;;5055202;28;20719;-62
2022/10/04 12:31:23;;;;;;;7.20;4.97;;;20.20;99.90;;;;;;5061063;28;20193;-61
2022/10/04 12:34:00;;;;;;;11.57;5.47;;;20.30;99.90;;;;;;5062298;28;20202;-62
2022/10/04 12:36:54;;;;;;;10.17;5.10;;;20.20;99.90;;;;;;5062816;28;20200;-62
2022/10/04 12:39:41;;;;;;;14.60;5.10;;;20.20;99.90;;;;;;5069992;28;20196;-62
2022/10/04 12:42:22;;;;;;;6.60;4.87;;;20.20;99.90;;;;;;5061290;28;20195;-62
2022/10/04 12:45:08;;;;;;;5.20;4.70;;;20.10;99.90;;;;;;5061155;28;20189;-61
2022/10/04 12:48:16;;;;;;;7.87;4.47;;;20.10;99.90;;;;;;5063585;28;20191;-61
2022/10/04 12:50:53;;;;;;;5.90;4.97;;;20.10;99.90;;;;;;5058276;28;20187;-62
2022/10/04 12:53:35;;;;;;;7.30;4.77;;;20.10;99.90;;;;;;5060221;28;20204;-61
2022/10/04 12:56:17;;;;;;;6.70;4.50;;;20.30;99.90;;;;;;5055374;28;20190;-62
2022/10/04 12:59:06;;;;;;;5.70;4.07;;;20.30;99.90;;;;;;5057688;28;20215;-61
2022/10/04 13:01:43;;;;;;;4.90;4.40;;;20.30;99.90;;;;;;5061743;28;20269;-61
2022/10/04 13:04:29;;;;;;;6.80;4.30;;;20.20;99.90;;;;;;5060773;28;20257;-61
2022/10/04 13:07:13;;;;;;;4.57;4.17;;;20.20;99.90;;;;;;5063683;28;20227;-61
2022/10/04 13:09:50;;;;;;;6.97;4.23;;;20.20;99.90;;;;;;5049284;28;20201;-61
2022/10/04 13:13:13;;;;;;;7.30;4.30;;;20.20;99.90;;;;;;5050615;28;20275;-61
2022/10/04 13:15:50;;;;;;;5.00;4.33;;;20.10;99.90;;;;;;5059693;28;20195;-61
2022/10/04 13:18:46;;;;;;;7.53;4.23;;;20.10;99.90;;;;;;5059197;28;20813;-61
2022/10/04 13:21:22;;;;;;;5.27;4.03;;;20.10;99.90;;;;;;5070838;28;20237;-61
2022/10/04 13:24:03;;;;;;;5.00;4.00;;;20.10;99.90;;;;;;5062826;28;20195;-61
2022/10/04 13:26:43;;;;;;;7.40;3.50;;;20.20;99.90;;;;;;5055134;28;20861;-61
2022/10/04 13:29:23;;;;;;;5.40;4.03;;;20.40;99.90;;;;;;5052538;28;20188;-61
2022/10/04 13:31:57;;;;;;;4.20;3.80;;;20.40;99.90;;;;;;5075865;28;20200;-62
2022/10/04 13:34:36;;;;;;;4.43;3.60;;;20.40;99.90;;;;;;5057344;28;20659;-61
2022/10/04 13:37:25;;;;;;;6.60;4.20;;;20.50;99.90;;;;;;5060513;28;20192;-62
2022/10/04 13:40:20;;;;;;;4.77;3.50;;;20.50;99.90;;;;;;5063991;28;20200;-61
2022/10/04 13:43:17;;;;;;;4.80;3.17;;;20.40;99.90;;;;;;5064737;28;20207;-61
2022/10/04 13:45:59;;;;;;;3.93;3.10;;;20.40;99.90;;;;;;5070211;28;20200;-62
2022/10/04 13:48:31;;;;;;;4.87;3.20;;;20.50;99.90;;;;;;5057239;28;20200;-62
2022/10/04 13:51:17;;;;;;;3.83;3.30;;;20.60;99.90;;;;;;5060425;28;20211;-61
2022/10/04 13:57:03;;;;;;;4.13;3.27;;;20.80;99.90;;;;;;5065368;28;20200;-62
2022/10/04 13:59:41;;;;;;;4.67;3.20;;;20.60;99.90;;;;;;5061692;28;20196;-61
2022/10/04 14:02:33;;;;;;;4.37;3.47;;;20.50;99.90;;;;;;5065204;28;20212;-62
2022/10/04 14:05:36;;;;;;;4.10;3.07;;;20.60;99.90;;;;;;5060896;28;20199;-61
2022/10/04 14:08:42;;;;;;;7.43;3.10;;;20.40;99.90;;;;;;5064049;28;20222;-62
2022/10/04 14:11:34;;;;;;;5.40;3.10;;;20.50;99.90;;;;;;5064733;28;20214;-62
2022/10/04 14:14:32;;;;;;;5.70;3.20;;;20.40;99.90;;;;;;5048523;28;20525;-61